TAF KBTM
KBTM 280520Z 2806/2906 VRB03KT P6SM SCT060 FM282000 25015G22KT P6SM SCT120 FM290200 25008KT P6SM SKC=
METAR KBTM
WC KBTM
WS KBTM
WV KBTM